createdAt,value
2023-03-15T00:01:08.625Z,36.42
2023-03-15T00:03:37.767Z,16.00
2023-03-15T00:06:05.962Z,23.75
2023-03-15T00:08:34.274Z,12.07
2023-03-15T00:11:02.582Z,13.18
2023-03-15T00:13:31.285Z,19.48
2023-03-15T00:16:03.301Z,17.25
2023-03-15T00:18:31.919Z,17.92
2023-03-15T00:20:59.975Z,17.35
2023-03-15T00:23:27.919Z,19.00
2023-03-15T00:25:55.834Z,16.65
2023-03-15T00:28:23.965Z,20.15
2023-03-15T00:31:04.823Z,19.58
2023-03-15T00:33:35.856Z,16.92
2023-03-15T00:36:07.094Z,20.45
2023-03-15T00:38:37.103Z,21.92
2023-03-15T00:41:14.772Z,21.15
2023-03-15T00:43:43.610Z,24.92
2023-03-15T00:46:12.284Z,21.08
2023-03-15T00:48:40.757Z,15.82
2023-03-15T00:51:14.635Z,16.75
2023-03-15T00:53:47.597Z,15.65
2023-03-15T00:56:18.845Z,26.15
2023-03-15T00:58:46.945Z,19.95
2023-03-15T01:01:18.421Z,17.23
2023-03-15T01:03:47.942Z,16.88
2023-03-15T01:06:24.143Z,44.97
2023-03-15T01:08:54.711Z,33.25
2023-03-15T01:11:26.678Z,14.77
2023-03-15T01:13:57.657Z,7.75
2023-03-15T01:16:27.858Z,14.25
2023-03-15T01:18:56.934Z,30.30
2023-03-15T01:21:25.049Z,37.55
2023-03-15T01:23:54.247Z,16.13
2023-03-15T01:26:26.085Z,8.65
2023-03-15T01:31:27.415Z,9.55
2023-03-15T01:33:56.547Z,10.25
2023-03-15T01:36:25.408Z,8.57
2023-03-15T01:38:55.210Z,11.93
2023-03-15T01:41:32.734Z,12.13
2023-03-15T01:44:00.536Z,8.82
2023-03-15T01:46:36.003Z,10.57
2023-03-15T01:49:33.960Z,8.60
2023-03-15T01:52:13.907Z,9.40
2023-03-15T01:55:21.054Z,12.85
2023-03-15T01:58:07.708Z,9.80
2023-03-15T02:00:39.519Z,9.52
2023-03-15T02:03:21.515Z,11.85
2023-03-15T02:05:56.989Z,17.00
2023-03-15T02:08:44.085Z,16.10
2023-03-15T02:11:13.869Z,19.58
2023-03-15T02:13:45.278Z,13.18
2023-03-15T02:16:13.797Z,17.10
2023-03-15T02:18:50.332Z,15.25
2023-03-15T02:21:57.282Z,17.95
2023-03-15T02:24:52.951Z,16.70
2023-03-15T02:27:37.015Z,13.80
2023-03-15T02:30:06.636Z,21.40
2023-03-15T02:32:34.701Z,16.27
2023-03-15T02:35:02.735Z,14.82
2023-03-15T02:37:31.492Z,17.27
2023-03-15T02:39:59.782Z,14.57
2023-03-15T02:42:28.220Z,19.48
2023-03-15T02:44:58.486Z,18.75
2023-03-15T02:47:33.018Z,14.85
2023-03-15T02:50:01.274Z,11.15
2023-03-15T02:52:29.905Z,13.43
2023-03-15T02:57:04.221Z,34.13
2023-03-15T02:59:32.909Z,25.58
2023-03-15T03:02:00.951Z,27.65
2023-03-15T03:04:29.100Z,21.88
2023-03-15T03:06:57.504Z,15.43
2023-03-15T03:09:33.272Z,14.60
2023-03-15T03:12:01.330Z,14.35
2023-03-15T03:14:30.288Z,17.30
2023-03-15T03:16:59.058Z,12.73
2023-03-15T03:19:26.919Z,16.65
2023-03-15T03:21:55.546Z,15.38
2023-03-15T03:24:26.042Z,15.13
2023-03-15T03:26:58.409Z,14.05
2023-03-15T03:29:29.613Z,12.43
2023-03-15T03:32:01.101Z,13.23
2023-03-15T03:34:29.141Z,11.45
2023-03-15T03:36:58.237Z,12.70
2023-03-15T03:39:42.445Z,8.88
2023-03-15T03:42:11.043Z,9.10
2023-03-15T03:44:38.944Z,7.60
2023-03-15T03:47:07.686Z,9.93
2023-03-15T03:49:35.704Z,6.05
2023-03-15T03:52:04.110Z,20.95
2023-03-15T03:54:32.408Z,9.75
2023-03-15T03:57:00.599Z,9.20
2023-03-15T03:59:33.181Z,8.80
2023-03-15T04:02:05.788Z,10.45
2023-03-15T04:07:03.537Z,11.05
2023-03-15T04:09:37.801Z,7.55
2023-03-15T04:12:07.085Z,7.07
2023-03-15T04:14:36.378Z,9.80
2023-03-15T04:17:09.006Z,9.82
2023-03-15T04:19:37.215Z,9.77
2023-03-15T04:22:08.987Z,10.48
2023-03-15T04:24:58.788Z,10.52
2023-03-15T04:27:41.521Z,9.15
2023-03-15T04:30:30.961Z,8.88
2023-03-15T04:33:12.468Z,15.02
2023-03-15T04:36:04.785Z,20.05
2023-03-15T04:38:48.277Z,15.70
2023-03-15T04:41:51.913Z,35.88
2023-03-15T04:44:31.959Z,23.55
2023-03-15T04:47:23.842Z,19.50
2023-03-15T04:49:51.897Z,15.77
2023-03-15T04:52:46.808Z,20.23
2023-03-15T04:55:39.467Z,18.38
2023-03-15T04:58:16.222Z,14.45
2023-03-15T05:01:11.799Z,12.45
2023-03-15T05:03:55.994Z,10.38
2023-03-15T05:06:42.488Z,11.88
2023-03-15T05:09:29.249Z,10.45
2023-03-15T05:12:18.024Z,9.38
2023-03-15T05:15:05.374Z,10.70
2023-03-15T05:17:56.137Z,13.32
2023-03-15T05:20:41.973Z,17.35
2023-03-15T05:23:18.913Z,13.18
2023-03-15T05:26:06.001Z,10.82
2023-03-15T05:28:52.705Z,12.50
2023-03-15T05:31:43.567Z,16.60
2023-03-15T05:34:30.060Z,18.27
2023-03-15T05:36:59.433Z,20.85
2023-03-15T05:39:57.105Z,22.52
2023-03-15T05:42:44.927Z,32.50
2023-03-15T05:45:33.374Z,46.65
2023-03-15T05:48:24.820Z,35.25
2023-03-15T05:51:01.527Z,28.23
2023-03-15T05:53:47.346Z,23.13
2023-03-15T05:56:27.465Z,39.25
2023-03-15T05:59:15.192Z,30.45
2023-03-15T06:02:09.822Z,19.73
2023-03-15T06:04:46.356Z,24.67
2023-03-15T06:07:18.872Z,19.10
2023-03-15T06:09:47.021Z,31.60
2023-03-15T06:12:15.270Z,24.40
2023-03-15T06:14:43.580Z,19.67
2023-03-15T06:17:12.846Z,21.88
2023-03-15T06:19:44.434Z,14.02
2023-03-15T06:22:12.513Z,13.30
2023-03-15T06:24:53.352Z,12.63
2023-03-15T06:27:22.669Z,16.10
2023-03-15T06:29:54.192Z,11.13
2023-03-15T06:32:24.462Z,12.50
2023-03-15T06:34:52.597Z,11.07
2023-03-15T06:37:34.183Z,15.95
2023-03-15T06:40:07.680Z,18.50
2023-03-15T06:42:36.362Z,10.43
2023-03-15T06:45:06.100Z,10.55
2023-03-15T06:47:34.577Z,19.10
2023-03-15T06:50:06.240Z,13.15
2023-03-15T06:52:34.450Z,8.43
2023-03-15T06:55:02.975Z,7.70
2023-03-15T06:57:30.964Z,8.90
2023-03-15T06:59:59.183Z,8.50
2023-03-15T07:02:27.174Z,8.20
2023-03-15T07:04:55.222Z,13.38
2023-03-15T07:07:23.193Z,18.08
2023-03-15T07:09:51.804Z,12.65
2023-03-15T07:12:20.272Z,11.05
2023-03-15T07:14:48.471Z,11.68
2023-03-15T07:17:16.599Z,6.45
2023-03-15T07:19:55.711Z,12.70
2023-03-15T07:22:25.145Z,7.30
2023-03-15T07:24:53.037Z,9.90
2023-03-15T07:27:21.347Z,9.27
2023-03-15T07:29:49.257Z,18.88
2023-03-15T07:32:17.883Z,8.43
2023-03-15T07:34:45.749Z,9.95
2023-03-15T07:37:14.029Z,8.57
2023-03-15T07:39:41.939Z,10.95
2023-03-15T07:42:10.348Z,6.20
2023-03-15T07:44:43.122Z,7.47
2023-03-15T07:47:11.429Z,11.18
2023-03-15T07:49:39.967Z,8.18
2023-03-15T07:52:08.530Z,12.48
2023-03-15T07:54:36.517Z,7.75
2023-03-15T07:57:04.916Z,13.23
2023-03-15T07:59:33.903Z,9.88
2023-03-15T08:02:03.145Z,14.35
2023-03-15T08:04:31.800Z,8.43
2023-03-15T08:06:59.870Z,8.98
2023-03-15T08:09:27.908Z,10.27
2023-03-15T08:11:55.986Z,7.38
2023-03-15T08:14:24.849Z,7.05
2023-03-15T08:19:20.555Z,7.35
2023-03-15T08:21:48.706Z,6.13
2023-03-15T08:24:16.695Z,6.13
2023-03-15T08:26:44.801Z,7.93
2023-03-15T08:29:14.852Z,7.15
2023-03-15T08:31:43.079Z,7.85
2023-03-15T08:34:12.368Z,7.38
2023-03-15T08:36:40.435Z,5.95
2023-03-15T08:39:08.697Z,6.70
2023-03-15T08:41:36.684Z,5.85
2023-03-15T08:44:04.644Z,5.97
2023-03-15T08:46:33.626Z,7.90
2023-03-15T08:49:02.663Z,6.10
2023-03-15T08:51:31.344Z,6.32
2023-03-15T08:53:59.486Z,8.50
2023-03-15T08:56:27.795Z,8.48
2023-03-15T08:58:56.149Z,6.25
2023-03-15T09:01:24.440Z,7.35
2023-03-15T09:03:52.530Z,9.38
2023-03-15T09:06:21.430Z,6.90
2023-03-15T09:08:49.450Z,6.05
2023-03-15T09:11:17.368Z,7.40
2023-03-15T09:13:45.408Z,7.70
2023-03-15T09:16:13.340Z,7.15
2023-03-15T09:18:41.737Z,6.13
2023-03-15T09:21:10.288Z,7.60
2023-03-15T09:23:40.579Z,9.90
2023-03-15T09:26:08.545Z,9.32
2023-03-15T09:28:36.577Z,9.20
2023-03-15T09:31:06.853Z,6.40
2023-03-15T09:33:35.046Z,7.45
2023-03-15T09:36:03.254Z,11.27
2023-03-15T09:38:31.327Z,9.75
2023-03-15T09:41:00.310Z,7.65
2023-03-15T09:43:40.174Z,7.63
2023-03-15T09:46:25.591Z,6.32
2023-03-15T09:49:10.584Z,7.10
2023-03-15T09:51:48.249Z,6.60
2023-03-15T09:54:19.200Z,6.10
2023-03-15T09:57:17.185Z,8.10
2023-03-15T09:59:49.428Z,8.52
2023-03-15T10:02:30.234Z,10.85
2023-03-15T10:05:11.306Z,9.23
2023-03-15T10:07:39.400Z,7.90
2023-03-15T10:10:19.474Z,8.25
2023-03-15T10:12:59.219Z,9.40
2023-03-15T10:15:58.876Z,8.25
2023-03-15T10:21:23.728Z,8.20
2023-03-15T10:23:54.945Z,6.40
2023-03-15T10:26:33.042Z,11.30
2023-03-15T10:29:03.777Z,5.65
2023-03-15T10:31:44.435Z,8.63
2023-03-15T10:34:14.616Z,8.32
2023-03-15T10:36:54.631Z,7.30
2023-03-15T10:39:25.213Z,10.07
2023-03-15T10:41:53.249Z,7.93
2023-03-15T10:44:35.850Z,7.20
2023-03-15T10:47:23.029Z,6.65
2023-03-15T10:49:57.781Z,5.75
2023-03-15T10:52:39.006Z,7.20
2023-03-15T10:57:56.757Z,7.50
2023-03-15T11:00:30.133Z,5.95
2023-03-15T11:03:16.577Z,8.60
2023-03-15T11:05:53.809Z,6.50
2023-03-15T11:08:42.422Z,9.13
2023-03-15T11:11:10.564Z,9.25
2023-03-15T11:13:42.045Z,6.43
2023-03-15T11:16:15.698Z,6.72
2023-03-15T11:18:47.468Z,8.07
2023-03-15T11:21:17.847Z,9.68
2023-03-15T11:23:49.673Z,12.48
2023-03-15T11:26:32.169Z,16.77
2023-03-15T11:29:08.353Z,7.82
2023-03-15T11:31:36.886Z,8.18
2023-03-15T11:34:22.401Z,7.50
2023-03-15T11:37:07.487Z,6.32
2023-03-15T11:40:13.596Z,9.85
2023-03-15T11:43:02.984Z,13.20
2023-03-15T11:45:51.535Z,8.85
2023-03-15T11:48:44.487Z,11.15
2023-03-15T11:51:13.911Z,6.93
2023-03-15T11:54:05.660Z,5.57
2023-03-15T11:57:04.821Z,7.55
2023-03-15T11:59:38.875Z,7.95
2023-03-15T12:02:15.780Z,8.25
2023-03-15T12:04:51.365Z,5.85
2023-03-15T12:07:19.363Z,6.70
2023-03-15T12:09:58.664Z,7.05
2023-03-15T12:12:26.647Z,5.35
2023-03-15T12:15:19.076Z,6.25
2023-03-15T12:17:50.912Z,6.53
2023-03-15T12:20:38.749Z,6.65
2023-03-15T12:23:12.882Z,5.35
2023-03-15T12:25:55.247Z,5.07
2023-03-15T12:28:49.798Z,12.00
2023-03-15T12:31:18.558Z,6.85
2023-03-15T12:33:58.784Z,5.53
2023-03-15T12:36:41.744Z,6.78
2023-03-15T12:39:09.860Z,8.55
2023-03-15T12:41:46.301Z,8.10
2023-03-15T12:44:27.766Z,12.25
2023-03-15T12:46:57.996Z,7.22
2023-03-15T12:49:34.509Z,7.57
2023-03-15T12:52:11.333Z,8.88
2023-03-15T12:55:15.930Z,8.75
2023-03-15T12:57:54.221Z,8.50
2023-03-15T13:00:23.704Z,10.57
2023-03-15T13:02:59.772Z,12.10
2023-03-15T13:05:36.489Z,8.25
2023-03-15T13:08:26.136Z,8.15
2023-03-15T13:11:20.387Z,10.27
2023-03-15T13:13:54.563Z,6.30
2023-03-15T13:16:56.498Z,9.02
2023-03-15T13:19:30.131Z,8.18
2023-03-15T13:22:14.279Z,8.02
2023-03-15T13:25:01.579Z,13.90
2023-03-15T13:30:37.519Z,23.05
2023-03-15T13:33:08.614Z,10.55
2023-03-15T13:35:45.002Z,9.13
2023-03-15T13:38:26.213Z,16.77
2023-03-15T13:40:56.133Z,6.30
2023-03-15T13:43:33.399Z,14.30
2023-03-15T13:46:02.025Z,22.83
2023-03-15T13:48:32.672Z,6.57
2023-03-15T13:51:10.445Z,6.25
2023-03-15T13:53:49.408Z,14.38
2023-03-15T13:56:22.634Z,9.50
2023-03-15T13:58:52.468Z,6.22
2023-03-15T14:01:23.470Z,10.68
2023-03-15T14:04:02.062Z,40.05
2023-03-15T14:06:30.565Z,7.43
2023-03-15T14:09:10.528Z,10.55
2023-03-15T14:11:41.055Z,7.07
2023-03-15T14:14:27.514Z,12.13
2023-03-15T14:17:05.345Z,8.00
2023-03-15T14:19:36.202Z,21.05
2023-03-15T14:22:25.047Z,9.18
2023-03-15T14:24:53.532Z,4.80
2023-03-15T14:27:26.471Z,6.90
2023-03-15T14:30:02.848Z,6.22
2023-03-15T14:32:35.352Z,8.57
2023-03-15T14:35:25.378Z,6.43
2023-03-15T14:38:04.664Z,6.40
2023-03-15T14:40:35.544Z,7.00
2023-03-15T14:43:06.417Z,6.10
2023-03-15T14:45:37.406Z,6.63
2023-03-15T14:48:28.297Z,14.48
2023-03-15T14:50:56.913Z,18.13
2023-03-15T14:53:28.153Z,17.92
2023-03-15T14:55:56.242Z,8.63
2023-03-15T14:58:24.126Z,8.25
2023-03-15T15:00:55.460Z,11.95
2023-03-15T15:03:34.743Z,15.32
2023-03-15T15:06:03.410Z,8.90
2023-03-15T15:08:32.887Z,8.73
2023-03-15T15:11:01.809Z,11.88
2023-03-15T15:13:32.079Z,12.35
2023-03-15T15:16:00.785Z,15.10
2023-03-15T15:18:31.924Z,21.50
2023-03-15T15:21:12.362Z,10.30
2023-03-15T15:23:56.971Z,10.77
2023-03-15T15:26:30.694Z,9.15
2023-03-15T15:29:00.004Z,29.25
2023-03-15T15:31:30.089Z,17.48
2023-03-15T15:33:58.980Z,17.42
2023-03-15T15:36:39.770Z,12.50
2023-03-15T15:39:26.539Z,15.25
2023-03-15T15:41:55.050Z,39.00
2023-03-15T15:44:26.360Z,28.98
2023-03-15T15:46:55.171Z,15.77
2023-03-15T15:49:23.769Z,16.05
2023-03-15T15:51:52.637Z,13.63
2023-03-15T15:54:26.514Z,17.20
2023-03-15T15:56:58.038Z,14.85
2023-03-15T15:59:26.550Z,27.08
2023-03-15T16:02:01.073Z,19.80
2023-03-15T16:04:35.316Z,12.52
2023-03-15T16:07:04.445Z,12.05
2023-03-15T16:09:37.950Z,16.20
2023-03-15T16:12:18.188Z,18.17
2023-03-15T16:14:46.907Z,16.63
2023-03-15T16:17:23.428Z,12.57
2023-03-15T16:19:52.684Z,23.80
2023-03-15T16:22:24.195Z,15.40
2023-03-15T16:24:55.362Z,21.42
2023-03-15T16:27:27.238Z,24.42
2023-03-15T16:29:56.539Z,19.27
2023-03-15T16:32:41.111Z,13.48
2023-03-15T16:35:16.858Z,17.55
2023-03-15T16:37:46.788Z,16.95
2023-03-15T16:40:22.566Z,14.98
2023-03-15T16:42:51.437Z,15.25
2023-03-15T16:45:19.999Z,15.25
2023-03-15T16:47:49.023Z,18.98
2023-03-15T16:50:18.067Z,25.45
2023-03-15T16:55:20.076Z,24.17
2023-03-15T16:57:48.476Z,18.73
2023-03-15T17:00:17.500Z,15.63
2023-03-15T17:02:48.278Z,20.25
2023-03-15T17:05:21.277Z,74.80
2023-03-15T17:07:51.792Z,28.52
2023-03-15T17:10:23.465Z,15.50
2023-03-15T17:12:56.935Z,25.48
2023-03-15T17:15:27.540Z,18.20
2023-03-15T17:17:59.296Z,19.77
2023-03-15T17:20:29.404Z,31.80
2023-03-15T17:23:04.101Z,25.42
2023-03-15T17:25:34.585Z,21.13
2023-03-15T17:28:03.425Z,14.27
2023-03-15T17:33:02.333Z,10.68
2023-03-15T17:35:40.475Z,14.88
2023-03-15T17:38:17.954Z,15.05
2023-03-15T17:40:47.074Z,12.55
2023-03-15T17:43:17.685Z,11.50
2023-03-15T17:45:46.542Z,13.20
2023-03-15T17:48:14.894Z,9.90
2023-03-15T17:50:44.702Z,9.98
2023-03-15T17:53:19.058Z,65.75
2023-03-15T17:55:49.462Z,51.28
2023-03-15T17:58:21.156Z,30.75
2023-03-15T18:00:55.093Z,20.55
2023-03-15T18:03:24.418Z,16.23
2023-03-15T18:08:21.789Z,41.05
2023-03-15T18:10:51.896Z,62.38
2023-03-15T18:13:22.241Z,21.13
2023-03-15T18:15:51.941Z,18.38
2023-03-15T18:18:21.117Z,19.48
2023-03-15T18:20:49.862Z,19.75
2023-03-15T18:23:18.872Z,22.00
2023-03-15T18:25:47.190Z,14.25
2023-03-15T18:28:15.777Z,14.48
2023-03-15T18:30:45.179Z,17.40
2023-03-15T18:33:16.037Z,11.88
2023-03-15T18:35:44.997Z,14.55
2023-03-15T18:40:41.733Z,20.60
2023-03-15T18:43:14.461Z,22.02
2023-03-15T18:45:43.275Z,22.20
2023-03-15T18:50:40.062Z,20.85
2023-03-15T18:53:08.774Z,49.90
2023-03-15T18:55:37.097Z,17.30
2023-03-15T18:58:09.408Z,12.82
2023-03-15T19:00:38.112Z,9.60
2023-03-15T19:03:06.934Z,9.18
2023-03-15T19:05:38.164Z,14.52
2023-03-15T19:08:07.053Z,12.23
2023-03-15T19:10:35.499Z,10.43
2023-03-15T19:13:04.863Z,12.82
2023-03-15T19:15:33.325Z,13.88
2023-03-15T19:18:02.267Z,13.98
2023-03-15T19:20:31.102Z,17.23
2023-03-15T19:22:59.531Z,23.15
2023-03-15T19:25:27.811Z,18.70
2023-03-15T19:27:57.806Z,22.50
2023-03-15T19:30:27.793Z,19.38
2023-03-15T19:32:56.428Z,28.98
2023-03-15T19:35:27.149Z,24.20
2023-03-15T19:37:56.867Z,16.52
2023-03-15T19:40:25.330Z,14.65
2023-03-15T19:42:54.199Z,16.27
2023-03-15T19:45:22.643Z,23.17
2023-03-15T19:47:50.851Z,24.25
2023-03-15T19:50:19.053Z,15.23
2023-03-15T19:52:47.448Z,16.52
2023-03-15T19:55:20.821Z,21.05
2023-03-15T19:57:49.367Z,18.73
2023-03-15T20:00:19.595Z,21.88
2023-03-15T20:02:48.337Z,26.85
2023-03-15T20:05:19.542Z,23.30
2023-03-15T20:07:51.651Z,20.02
2023-03-15T20:10:21.734Z,18.90
2023-03-15T20:12:50.554Z,16.35
2023-03-15T20:15:19.855Z,14.98
2023-03-15T20:17:48.308Z,16.50
2023-03-15T20:20:16.827Z,17.25
2023-03-15T20:22:46.140Z,18.45
2023-03-15T20:25:16.314Z,17.63
2023-03-15T20:27:45.109Z,15.52
2023-03-15T20:30:16.422Z,15.38
2023-03-15T20:32:45.541Z,17.63
2023-03-15T20:35:14.228Z,15.95
2023-03-15T20:37:43.401Z,23.88
2023-03-15T20:42:42.753Z,15.15
2023-03-15T20:45:13.250Z,19.60
2023-03-15T20:47:42.050Z,17.90
2023-03-15T20:50:12.158Z,15.82
2023-03-15T20:52:43.045Z,21.35
2023-03-15T20:55:12.788Z,22.83
2023-03-15T20:57:43.104Z,20.27
2023-03-15T21:00:18.814Z,28.63
2023-03-15T21:02:48.235Z,26.55
2023-03-15T21:05:17.786Z,24.17
2023-03-15T21:07:49.075Z,20.77
2023-03-15T21:10:17.079Z,34.53
2023-03-15T21:12:45.275Z,29.48
2023-03-15T21:15:17.927Z,34.60
2023-03-15T21:17:49.313Z,20.30
2023-03-15T21:20:21.394Z,19.55
2023-03-15T21:22:49.696Z,11.57
2023-03-15T21:25:17.819Z,12.65
2023-03-15T21:27:46.025Z,14.20
2023-03-15T21:30:14.642Z,13.05
2023-03-15T21:32:43.663Z,12.55
2023-03-15T21:35:12.679Z,14.27
2023-03-15T21:37:40.640Z,14.98
2023-03-15T21:40:11.239Z,13.65
2023-03-15T21:42:40.016Z,13.05
2023-03-15T21:45:08.829Z,15.15
2023-03-15T21:47:37.190Z,14.45
2023-03-15T21:50:06.198Z,7.97
2023-03-15T21:55:02.182Z,6.82
2023-03-15T21:57:30.281Z,5.90
2023-03-15T21:59:58.406Z,4.72
2023-03-15T22:02:26.424Z,4.38
2023-03-15T22:04:54.365Z,5.03
2023-03-15T22:07:22.580Z,4.03
2023-03-15T22:09:53.400Z,4.50
2023-03-15T22:12:21.414Z,4.18
2023-03-15T22:14:56.913Z,4.28
2023-03-15T22:17:34.113Z,4.10
2023-03-15T22:20:02.366Z,4.13
2023-03-15T22:22:31.683Z,5.00
2023-03-15T22:27:27.318Z,2.65
2023-03-15T22:29:55.333Z,3.70
2023-03-15T22:32:23.342Z,2.38
2023-03-15T22:34:51.555Z,2.42
2023-03-15T22:37:19.459Z,2.85
2023-03-15T22:39:48.200Z,5.28
2023-03-15T22:42:16.206Z,3.38
2023-03-15T22:44:44.371Z,2.92
2023-03-15T22:47:12.162Z,3.03
2023-03-15T22:49:40.264Z,6.72
2023-03-15T22:52:08.255Z,3.17
2023-03-15T22:54:36.346Z,6.07
2023-03-15T22:57:04.411Z,2.83
2023-03-15T22:59:32.458Z,2.03
2023-03-15T23:02:00.628Z,3.10
2023-03-15T23:04:28.717Z,2.30
2023-03-15T23:06:57.098Z,2.60
2023-03-15T23:13:42.464Z,2.55
2023-03-15T23:16:10.630Z,5.38
2023-03-15T23:18:38.727Z,1.98
2023-03-15T23:21:08.504Z,5.25
2023-03-15T23:23:38.815Z,2.53
2023-03-15T23:26:07.393Z,3.35
2023-03-15T23:28:35.898Z,2.30
2023-03-15T23:31:07.146Z,2.97
2023-03-15T23:33:36.030Z,3.65
2023-03-15T23:36:06.244Z,2.00
2023-03-15T23:38:34.918Z,1.85
2023-03-15T23:41:05.137Z,1.70
2023-03-15T23:43:33.849Z,2.17
2023-03-15T23:46:05.103Z,3.22
2023-03-15T23:48:35.819Z,1.60
2023-03-15T23:51:04.325Z,2.45
2023-03-15T23:53:32.826Z,1.55
2023-03-15T23:59:49.592Z,2.03
